Terminal Aerodrome Forecast
Issued by NWS

Home | Current Version | Previous Version | Text Only | Print | Product List | Glossary On
Versions: 1 2 3 4 5 6 7 8 9 10 11 12
186
FTUS45 KRIW 240529
TAFLND
TAF
KLND 240529Z 2406/2506 26008KT P6SM SCT090
     FM241700 13007KT P6SM SCT060
     FM250300 24008KT P6SM FEW080=

USA.gov is the U.S. government's official web portal to all federal, state and local government web resources and services.